sensor_id;sensor_type;location;lat;lon;timestamp;pressure;altitude;pressure_sealevel;temperature;humidity
10718;BME280;13513;42.700;23.124;2023-03-26T00:00:26;92465.40;;;9.62;100.00
10718;BME280;13513;42.700;23.124;2023-03-26T00:02:57;92463.29;;;9.64;100.00
10718;BME280;13513;42.700;23.124;2023-03-26T00:05:28;92463.02;;;9.63;100.00
10718;BME280;13513;42.700;23.124;2023-03-26T00:07:59;92465.16;;;9.66;100.00
10718;BME280;13513;42.700;23.124;2023-03-26T00:10:29;92450.61;;;9.63;100.00
10718;BME280;13513;42.700;23.124;2023-03-26T00:13:00;92444.80;;;9.59;100.00
10718;BME280;13513;42.700;23.124;2023-03-26T00:15:32;92439.44;;;9.51;100.00
10718;BME280;13513;42.700;23.124;2023-03-26T00:18:05;92429.09;;;9.42;100.00
10718;BME280;13513;42.700;23.124;2023-03-26T00:20:36;92425.95;;;9.16;100.00
10718;BME280;13513;42.700;23.124;2023-03-26T00:23:07;92424.78;;;9.02;100.00
10718;BME280;13513;42.700;23.124;2023-03-26T00:25:38;92421.38;;;8.80;100.00
10718;BME280;13513;42.700;23.124;2023-03-26T00:28:09;92405.39;;;8.63;100.00
10718;BME280;13513;42.700;23.124;2023-03-26T00:30:40;92407.63;;;8.52;100.00
10718;BME280;13513;42.700;23.124;2023-03-26T00:33:11;92403.58;;;8.44;100.00
10718;BME280;13513;42.700;23.124;2023-03-26T00:35:42;92407.58;;;8.47;100.00
10718;BME280;13513;42.700;23.124;2023-03-26T00:38:14;92416.73;;;8.44;100.00
10718;BME280;13513;42.700;23.124;2023-03-26T00:40:45;92426.22;;;8.43;100.00
10718;BME280;13513;42.700;23.124;2023-03-26T00:43:17;92424.16;;;8.47;100.00
10718;BME280;13513;42.700;23.124;2023-03-26T00:45:51;92415.64;;;8.40;100.00
10718;BME280;13513;42.700;23.124;2023-03-26T00:48:21;92420.66;;;8.42;100.00
10718;BME280;13513;42.700;23.124;2023-03-26T00:50:52;92426.98;;;8.41;100.00
10718;BME280;13513;42.700;23.124;2023-03-26T00:53:23;92427.80;;;8.44;100.00
10718;BME280;13513;42.700;23.124;2023-03-26T00:55:53;92423.70;;;8.53;100.00
10718;BME280;13513;42.700;23.124;2023-03-26T00:58:25;92427.28;;;8.66;100.00
10718;BME280;13513;42.700;23.124;2023-03-26T01:00:57;92421.72;;;8.65;100.00
10718;BME280;13513;42.700;23.124;2023-03-26T01:03:31;92429.26;;;8.78;100.00
10718;BME280;13513;42.700;23.124;2023-03-26T01:06:07;92431.53;;;8.96;100.00
10718;BME280;13513;42.700;23.124;2023-03-26T01:08:47;92438.13;;;8.96;100.00
10718;BME280;13513;42.700;23.124;2023-03-26T01:11:23;92431.63;;;9.03;100.00
10718;BME280;13513;42.700;23.124;2023-03-26T01:14:09;92427.97;;;9.07;100.00
10718;BME280;13513;42.700;23.124;2023-03-26T01:16:41;92433.48;;;9.05;100.00
10718;BME280;13513;42.700;23.124;2023-03-26T01:19:28;92431.98;;;9.12;100.00
10718;BME280;13513;42.700;23.124;2023-03-26T01:21:58;92432.75;;;9.10;100.00
10718;BME280;13513;42.700;23.124;2023-03-26T01:24:28;92438.70;;;9.00;100.00
10718;BME280;13513;42.700;23.124;2023-03-26T01:29:52;92440.41;;;8.85;100.00
10718;BME280;13513;42.700;23.124;2023-03-26T01:32:34;92436.96;;;8.84;100.00
10718;BME280;13513;42.700;23.124;2023-03-26T01:35:24;92443.33;;;8.88;100.00
10718;BME280;13513;42.700;23.124;2023-03-26T01:38:28;92447.86;;;8.93;100.00
10718;BME280;13513;42.700;23.124;2023-03-26T01:41:16;92451.25;;;8.91;100.00
10718;BME280;13513;42.700;23.124;2023-03-26T01:44:14;92445.45;;;8.89;100.00
10718;BME280;13513;42.700;23.124;2023-03-26T01:46:21;92446.19;;;8.84;100.00
10718;BME280;13513;42.700;23.124;2023-03-26T01:48:53;92450.11;;;8.82;100.00
10718;BME280;13513;42.700;23.124;2023-03-26T01:51:32;92444.73;;;8.74;100.00
10718;BME280;13513;42.700;23.124;2023-03-26T01:54:04;92441.98;;;8.62;100.00
10718;BME280;13513;42.700;23.124;2023-03-26T01:56:45;92444.72;;;8.72;100.00
10718;BME280;13513;42.700;23.124;2023-03-26T01:59:39;92438.97;;;8.75;100.00
10718;BME280;13513;42.700;23.124;2023-03-26T02:02:10;92436.58;;;8.73;100.00
10718;BME280;13513;42.700;23.124;2023-03-26T02:07:51;92442.88;;;8.48;100.00
10718;BME280;13513;42.700;23.124;2023-03-26T02:10:32;92438.34;;;8.44;100.00
10718;BME280;13513;42.700;23.124;2023-03-26T02:13:02;92439.09;;;8.42;100.00
10718;BME280;13513;42.700;23.124;2023-03-26T02:15:34;92448.16;;;8.29;100.00
10718;BME280;13513;42.700;23.124;2023-03-26T02:18:05;92442.01;;;8.21;100.00
10718;BME280;13513;42.700;23.124;2023-03-26T02:20:36;92446.10;;;8.17;100.00
10718;BME280;13513;42.700;23.124;2023-03-26T02:23:06;92445.75;;;8.08;100.00
10718;BME280;13513;42.700;23.124;2023-03-26T02:25:37;92443.44;;;7.95;100.00
10718;BME280;13513;42.700;23.124;2023-03-26T02:28:08;92450.86;;;7.98;100.00
10718;BME280;13513;42.700;23.124;2023-03-26T02:30:39;92450.16;;;7.86;100.00
10718;BME280;13513;42.700;23.124;2023-03-26T02:33:10;92451.84;;;7.92;100.00
10718;BME280;13513;42.700;23.124;2023-03-26T02:35:42;92451.50;;;7.89;100.00
10718;BME280;13513;42.700;23.124;2023-03-26T02:38:11;92451.74;;;7.87;100.00
10718;BME280;13513;42.700;23.124;2023-03-26T02:40:42;92450.55;;;7.95;100.00
10718;BME280;13513;42.700;23.124;2023-03-26T02:43:13;92465.02;;;7.95;100.00
10718;BME280;13513;42.700;23.124;2023-03-26T02:45:45;92476.29;;;7.93;100.00
10718;BME280;13513;42.700;23.124;2023-03-26T02:48:18;92480.67;;;7.87;100.00
10718;BME280;13513;42.700;23.124;2023-03-26T02:50:49;92489.10;;;7.87;100.00
10718;BME280;13513;42.700;23.124;2023-03-26T02:53:22;92490.41;;;7.87;100.00
10718;BME280;13513;42.700;23.124;2023-03-26T02:55:52;92492.67;;;7.81;100.00
10718;BME280;13513;42.700;23.124;2023-03-26T02:58:23;92496.98;;;7.70;100.00
10718;BME280;13513;42.700;23.124;2023-03-26T03:00:53;92501.78;;;7.73;100.00
10718;BME280;13513;42.700;23.124;2023-03-26T03:03:25;92500.93;;;7.70;100.00
10718;BME280;13513;42.700;23.124;2023-03-26T03:05:56;92507.70;;;7.66;100.00
10718;BME280;13513;42.700;23.124;2023-03-26T03:08:27;92507.97;;;7.67;100.00
10718;BME280;13513;42.700;23.124;2023-03-26T03:11:12;92511.95;;;7.70;100.00
10718;BME280;13513;42.700;23.124;2023-03-26T03:13:43;92501.47;;;7.72;100.00
10718;BME280;13513;42.700;23.124;2023-03-26T03:16:14;92505.42;;;7.72;100.00
10718;BME280;13513;42.700;23.124;2023-03-26T03:18:45;92505.72;;;7.73;100.00
10718;BME280;13513;42.700;23.124;2023-03-26T03:21:16;92515.30;;;7.82;100.00
10718;BME280;13513;42.700;23.124;2023-03-26T03:23:46;92520.36;;;7.86;100.00
10718;BME280;13513;42.700;23.124;2023-03-26T03:26:21;92522.98;;;7.86;100.00
10718;BME280;13513;42.700;23.124;2023-03-26T03:28:52;92527.47;;;7.85;100.00
10718;BME280;13513;42.700;23.124;2023-03-26T03:31:24;92520.39;;;8.05;100.00
10718;BME280;13513;42.700;23.124;2023-03-26T03:33:54;92523.19;;;8.15;100.00
10718;BME280;13513;42.700;23.124;2023-03-26T03:36:24;92520.95;;;8.21;100.00
10718;BME280;13513;42.700;23.124;2023-03-26T03:38:54;92513.59;;;8.23;100.00
10718;BME280;13513;42.700;23.124;2023-03-26T03:41:25;92515.00;;;8.30;100.00
10718;BME280;13513;42.700;23.124;2023-03-26T03:43:56;92521.34;;;8.32;100.00
10718;BME280;13513;42.700;23.124;2023-03-26T03:46:27;92519.55;;;8.35;100.00
10718;BME280;13513;42.700;23.124;2023-03-26T03:48:58;92522.22;;;8.38;100.00
10718;BME280;13513;42.700;23.124;2023-03-26T03:51:28;92522.13;;;8.49;100.00
10718;BME280;13513;42.700;23.124;2023-03-26T03:53:58;92529.42;;;8.64;100.00
10718;BME280;13513;42.700;23.124;2023-03-26T03:56:28;92524.09;;;8.59;100.00
10718;BME280;13513;42.700;23.124;2023-03-26T03:58:59;92522.45;;;8.55;100.00
10718;BME280;13513;42.700;23.124;2023-03-26T04:01:30;92508.69;;;8.48;100.00
10718;BME280;13513;42.700;23.124;2023-03-26T04:04:01;92513.14;;;8.67;100.00
10718;BME280;13513;42.700;23.124;2023-03-26T04:06:32;92521.73;;;8.81;100.00
10718;BME280;13513;42.700;23.124;2023-03-26T04:09:03;92531.31;;;8.87;100.00
10718;BME280;13513;42.700;23.124;2023-03-26T04:11:34;92531.22;;;8.82;100.00
10718;BME280;13513;42.700;23.124;2023-03-26T04:14:06;92543.59;;;8.79;100.00
10718;BME280;13513;42.700;23.124;2023-03-26T04:16:36;92545.77;;;8.85;100.00
10718;BME280;13513;42.700;23.124;2023-03-26T04:19:08;92548.70;;;8.88;100.00
10718;BME280;13513;42.700;23.124;2023-03-26T04:21:44;92550.71;;;8.81;100.00
10718;BME280;13513;42.700;23.124;2023-03-26T04:24:15;92551.14;;;8.73;100.00
10718;BME280;13513;42.700;23.124;2023-03-26T04:26:47;92552.94;;;8.70;100.00
10718;BME280;13513;42.700;23.124;2023-03-26T04:29:18;92563.77;;;8.52;100.00
10718;BME280;13513;42.700;23.124;2023-03-26T04:31:49;92564.13;;;8.42;100.00
10718;BME280;13513;42.700;23.124;2023-03-26T04:34:22;92580.42;;;8.39;100.00
10718;BME280;13513;42.700;23.124;2023-03-26T04:36:53;92583.96;;;8.47;100.00
10718;BME280;13513;42.700;23.124;2023-03-26T04:39:27;92583.78;;;8.53;100.00
10718;BME280;13513;42.700;23.124;2023-03-26T04:42:00;92596.38;;;8.51;100.00
10718;BME280;13513;42.700;23.124;2023-03-26T04:44:31;92595.66;;;8.56;100.00
10718;BME280;13513;42.700;23.124;2023-03-26T04:47:02;92594.83;;;8.53;100.00
10718;BME280;13513;42.700;23.124;2023-03-26T04:49:32;92597.02;;;8.58;100.00
10718;BME280;13513;42.700;23.124;2023-03-26T04:52:03;92602.55;;;8.59;100.00
10718;BME280;13513;42.700;23.124;2023-03-26T04:54:34;92599.19;;;8.45;100.00
10718;BME280;13513;42.700;23.124;2023-03-26T04:57:11;92597.28;;;8.59;100.00
10718;BME280;13513;42.700;23.124;2023-03-26T04:59:39;92596.78;;;8.79;100.00
10718;BME280;13513;42.700;23.124;2023-03-26T05:02:11;92598.84;;;8.96;100.00
10718;BME280;13513;42.700;23.124;2023-03-26T05:04:42;92604.06;;;9.12;100.00
10718;BME280;13513;42.700;23.124;2023-03-26T05:07:19;92605.56;;;9.06;100.00
10718;BME280;13513;42.700;23.124;2023-03-26T05:09:48;92609.88;;;9.12;100.00
10718;BME280;13513;42.700;23.124;2023-03-26T05:12:19;92615.33;;;9.08;100.00
10718;BME280;13513;42.700;23.124;2023-03-26T05:14:51;92615.84;;;9.26;100.00
10718;BME280;13513;42.700;23.124;2023-03-26T05:17:24;92611.80;;;9.64;100.00
10718;BME280;13513;42.700;23.124;2023-03-26T05:19:57;92615.48;;;10.14;100.00
10718;BME280;13513;42.700;23.124;2023-03-26T05:22:27;92613.23;;;11.08;96.66
10718;BME280;13513;42.700;23.124;2023-03-26T05:24:58;92610.69;;;11.89;92.25
10718;BME280;13513;42.700;23.124;2023-03-26T05:27:29;92616.56;;;12.39;82.53
10718;BME280;13513;42.700;23.124;2023-03-26T05:30:01;92619.77;;;12.56;78.14
10718;BME280;13513;42.700;23.124;2023-03-26T05:32:31;92607.05;;;12.36;74.01
10718;BME280;13513;42.700;23.124;2023-03-26T05:35:01;92614.94;;;12.00;74.24
10718;BME280;13513;42.700;23.124;2023-03-26T05:37:32;92616.44;;;11.64;77.35
10718;BME280;13513;42.700;23.124;2023-03-26T05:40:04;92612.06;;;11.38;80.92
10718;BME280;13513;42.700;23.124;2023-03-26T05:42:34;92618.28;;;11.66;80.15
10718;BME280;13513;42.700;23.124;2023-03-26T05:45:08;92617.88;;;12.19;78.06
10718;BME280;13513;42.700;23.124;2023-03-26T05:47:39;92610.75;;;12.57;72.63
10718;BME280;13513;42.700;23.124;2023-03-26T05:50:11;92616.02;;;12.92;69.47
10718;BME280;13513;42.700;23.124;2023-03-26T05:52:41;92611.78;;;13.11;67.52
10718;BME280;13513;42.700;23.124;2023-03-26T05:55:12;92605.24;;;13.67;65.83
10718;BME280;13513;42.700;23.124;2023-03-26T05:57:42;92606.25;;;14.27;62.44
10718;BME280;13513;42.700;23.124;2023-03-26T06:00:13;92607.56;;;14.68;58.90
10718;BME280;13513;42.700;23.124;2023-03-26T06:02:43;92610.52;;;14.95;53.61
10718;BME280;13513;42.700;23.124;2023-03-26T06:05:14;92616.06;;;15.01;54.14
10718;BME280;13513;42.700;23.124;2023-03-26T06:07:44;92615.00;;;14.97;52.97
10718;BME280;13513;42.700;23.124;2023-03-26T06:10:16;92614.84;;;14.89;55.13
10718;BME280;13513;42.700;23.124;2023-03-26T06:12:46;92609.88;;;15.06;51.73
10718;BME280;13513;42.700;23.124;2023-03-26T06:15:16;92610.04;;;15.17;50.91
10718;BME280;13513;42.700;23.124;2023-03-26T06:17:48;92605.24;;;15.45;51.06
10718;BME280;13513;42.700;23.124;2023-03-26T06:20:19;92609.03;;;15.62;50.01
10718;BME280;13513;42.700;23.124;2023-03-26T06:22:49;92613.84;;;15.63;47.65
10718;BME280;13513;42.700;23.124;2023-03-26T06:25:20;92608.81;;;15.33;48.37
10718;BME280;13513;42.700;23.124;2023-03-26T06:27:50;92611.90;;;15.16;49.20
10718;BME280;13513;42.700;23.124;2023-03-26T06:30:21;92613.24;;;15.68;48.18
10718;BME280;13513;42.700;23.124;2023-03-26T06:32:52;92600.24;;;16.07;47.37
10718;BME280;13513;42.700;23.124;2023-03-26T06:35:23;92603.70;;;16.47;45.50
10718;BME280;13513;42.700;23.124;2023-03-26T06:37:54;92601.52;;;16.67;44.64
10718;BME280;13513;42.700;23.124;2023-03-26T06:40:24;92601.85;;;16.95;45.02
10718;BME280;13513;42.700;23.124;2023-03-26T06:42:56;92603.33;;;17.49;43.58
10718;BME280;13513;42.700;23.124;2023-03-26T06:45:31;92611.86;;;17.92;42.54
10718;BME280;13513;42.700;23.124;2023-03-26T06:48:00;92611.66;;;18.75;39.92
10718;BME280;13513;42.700;23.124;2023-03-26T06:50:30;92612.41;;;19.33;39.85
10718;BME280;13513;42.700;23.124;2023-03-26T06:53:04;92623.59;;;19.77;39.32
10718;BME280;13513;42.700;23.124;2023-03-26T06:55:35;92632.15;;;20.18;37.28
10718;BME280;13513;42.700;23.124;2023-03-26T06:58:06;92624.87;;;20.55;36.52
10718;BME280;13513;42.700;23.124;2023-03-26T07:00:36;92629.13;;;20.56;36.88
10718;BME280;13513;42.700;23.124;2023-03-26T07:03:07;92641.60;;;20.44;35.86
10718;BME280;13513;42.700;23.124;2023-03-26T07:05:41;92632.75;;;20.43;36.22
10718;BME280;13513;42.700;23.124;2023-03-26T07:08:12;92632.15;;;20.18;36.37
10718;BME280;13513;42.700;23.124;2023-03-26T07:10:43;92636.27;;;20.69;36.28
10718;BME280;13513;42.700;23.124;2023-03-26T07:13:14;92637.97;;;20.93;35.15
10718;BME280;13513;42.700;23.124;2023-03-26T07:15:49;92624.14;;;21.06;34.48
10718;BME280;13513;42.700;23.124;2023-03-26T07:18:21;92620.92;;;21.55;33.77
10718;BME280;13513;42.700;23.124;2023-03-26T07:20:52;92618.27;;;22.15;32.63
10718;BME280;13513;42.700;23.124;2023-03-26T07:23:23;92615.09;;;22.65;31.11
10718;BME280;13513;42.700;23.124;2023-03-26T07:25:54;92610.00;;;23.46;30.08
10718;BME280;13513;42.700;23.124;2023-03-26T07:28:31;92606.06;;;23.88;29.74
10718;BME280;13513;42.700;23.124;2023-03-26T07:34:02;92605.67;;;24.16;28.32
10718;BME280;13513;42.700;23.124;2023-03-26T07:36:41;92606.80;;;24.39;26.62
10718;BME280;13513;42.700;23.124;2023-03-26T07:44:58;92614.16;;;25.08;25.83
10718;BME280;13513;42.700;23.124;2023-03-26T07:47:28;92604.71;;;25.42;25.54
10718;BME280;13513;42.700;23.124;2023-03-26T07:50:00;92608.83;;;25.24;25.59
10718;BME280;13513;42.700;23.124;2023-03-26T07:52:31;92603.28;;;25.32;25.61
10718;BME280;13513;42.700;23.124;2023-03-26T07:55:02;92601.66;;;25.43;25.50
10718;BME280;13513;42.700;23.124;2023-03-26T08:00:29;92600.42;;;26.11;24.36
10718;BME280;13513;42.700;23.124;2023-03-26T08:03:17;92601.20;;;26.58;24.39
10718;BME280;13513;42.700;23.124;2023-03-26T08:05:50;92596.31;;;26.89;24.63
10718;BME280;13513;42.700;23.124;2023-03-26T08:08:43;92591.02;;;27.40;23.58
10718;BME280;13513;42.700;23.124;2023-03-26T08:11:19;92596.50;;;27.63;23.08
10718;BME280;13513;42.700;23.124;2023-03-26T08:16:32;92597.11;;;28.58;21.88
10718;BME280;13513;42.700;23.124;2023-03-26T08:19:22;92595.08;;;28.42;22.39
10718;BME280;13513;42.700;23.124;2023-03-26T08:21:46;92601.75;;;28.58;21.89
10718;BME280;13513;42.700;23.124;2023-03-26T08:24:44;92602.19;;;28.73;21.95
10718;BME280;13513;42.700;23.124;2023-03-26T08:27:18;92606.28;;;28.50;22.40
10718;BME280;13513;42.700;23.124;2023-03-26T08:30:02;92603.38;;;28.17;21.75
10718;BME280;13513;42.700;23.124;2023-03-26T08:32:33;92605.99;;;28.55;22.27
10718;BME280;13513;42.700;23.124;2023-03-26T08:35:04;92607.84;;;28.61;21.47
10718;BME280;13513;42.700;23.124;2023-03-26T08:37:35;92614.27;;;29.70;20.20
10718;BME280;13513;42.700;23.124;2023-03-26T08:40:08;92599.67;;;30.89;20.65
10718;BME280;13513;42.700;23.124;2023-03-26T08:42:56;92602.72;;;31.75;19.22
10718;BME280;13513;42.700;23.124;2023-03-26T08:48:44;92605.45;;;32.23;18.79
10718;BME280;13513;42.700;23.124;2023-03-26T08:51:22;92609.86;;;32.98;19.03
10718;BME280;13513;42.700;23.124;2023-03-26T08:59:42;92611.19;;;32.70;17.50
10718;BME280;13513;42.700;23.124;2023-03-26T09:02:22;92612.94;;;32.47;17.05
10718;BME280;13513;42.700;23.124;2023-03-26T09:05:36;92611.58;;;34.03;16.13
10718;BME280;13513;42.700;23.124;2023-03-26T09:13:26;92594.14;;;33.48;16.13
10718;BME280;13513;42.700;23.124;2023-03-26T09:27:39;92578.73;;;33.78;15.88
10718;BME280;13513;42.700;23.124;2023-03-26T09:30:20;92581.25;;;33.20;15.75
10718;BME280;13513;42.700;23.124;2023-03-26T09:33:02;92585.19;;;32.66;16.70
10718;BME280;13513;42.700;23.124;2023-03-26T09:41:20;92573.30;;;36.27;13.64
10718;BME280;13513;42.700;23.124;2023-03-26T09:55:41;92570.72;;;37.74;12.92
10718;BME280;13513;42.700;23.124;2023-03-26T10:03:41;92549.52;;;35.62;15.25
10718;BME280;13513;42.700;23.124;2023-03-26T10:06:29;92550.27;;;34.37;15.39
10718;BME280;13513;42.700;23.124;2023-03-26T10:09:02;92551.48;;;32.06;16.22
10718;BME280;13513;42.700;23.124;2023-03-26T10:11:51;92546.51;;;30.22;18.83
10718;BME280;13513;42.700;23.124;2023-03-26T10:14:44;92545.70;;;27.73;19.18
10718;BME280;13513;42.700;23.124;2023-03-26T10:17:32;92531.58;;;25.97;21.81
10718;BME280;13513;42.700;23.124;2023-03-26T10:20:06;92533.34;;;24.04;22.62
10718;BME280;13513;42.700;23.124;2023-03-26T10:32:04;92521.33;;;21.11;27.61
10718;BME280;13513;42.700;23.124;2023-03-26T10:36:34;92513.70;;;20.39;28.38
10718;BME280;13513;42.700;23.124;2023-03-26T10:39:29;92510.31;;;20.45;28.88
10718;BME280;13513;42.700;23.124;2023-03-26T10:42:10;92514.35;;;20.08;29.64
10718;BME280;13513;42.700;23.124;2023-03-26T10:47:34;92497.78;;;19.11;30.28
10718;BME280;13513;42.700;23.124;2023-03-26T10:50:31;92500.73;;;18.90;31.77
10718;BME280;13513;42.700;23.124;2023-03-26T10:55:59;92498.84;;;19.01;29.91
10718;BME280;13513;42.700;23.124;2023-03-26T10:58:29;92500.86;;;19.15;29.49
10718;BME280;13513;42.700;23.124;2023-03-26T11:01:02;92491.61;;;19.32;30.54
10718;BME280;13513;42.700;23.124;2023-03-26T11:03:55;92489.91;;;19.25;29.01
10718;BME280;13513;42.700;23.124;2023-03-26T11:14:31;92486.50;;;18.92;29.49
10718;BME280;13513;42.700;23.124;2023-03-26T11:17:08;92479.31;;;19.31;30.33
10718;BME280;13513;42.700;23.124;2023-03-26T11:19:47;92475.66;;;19.84;30.38
10718;BME280;13513;42.700;23.124;2023-03-26T11:33:11;92445.17;;;20.59;28.33
10718;BME280;13513;42.700;23.124;2023-03-26T11:35:48;92450.28;;;20.58;26.98
10718;BME280;13513;42.700;23.124;2023-03-26T11:38:27;92445.09;;;20.53;27.63
10718;BME280;13513;42.700;23.124;2023-03-26T11:40:55;92450.48;;;20.27;26.34
10718;BME280;13513;42.700;23.124;2023-03-26T11:43:34;92441.50;;;20.72;26.93
10718;BME280;13513;42.700;23.124;2023-03-26T11:46:11;92435.44;;;21.09;25.53
10718;BME280;13513;42.700;23.124;2023-03-26T11:48:47;92424.51;;;21.28;24.20
10718;BME280;13513;42.700;23.124;2023-03-26T11:51:27;92423.59;;;21.68;24.39
10718;BME280;13513;42.700;23.124;2023-03-26T11:53:55;92405.91;;;22.02;23.85
10718;BME280;13513;42.700;23.124;2023-03-26T12:02:17;92402.80;;;22.12;25.54
10718;BME280;13513;42.700;23.124;2023-03-26T12:04:49;92400.00;;;22.49;24.04
10718;BME280;13513;42.700;23.124;2023-03-26T12:07:33;92395.14;;;22.22;24.70
10718;BME280;13513;42.700;23.124;2023-03-26T12:09:55;92398.03;;;21.76;24.96
10718;BME280;13513;42.700;23.124;2023-03-26T12:12:30;92392.27;;;21.57;26.90
10718;BME280;13513;42.700;23.124;2023-03-26T12:15:01;92389.80;;;21.29;25.88
10718;BME280;13513;42.700;23.124;2023-03-26T12:17:35;92387.42;;;21.13;24.82
10718;BME280;13513;42.700;23.124;2023-03-26T12:22:55;92373.36;;;20.62;28.01
10718;BME280;13513;42.700;23.124;2023-03-26T12:25:30;92372.02;;;20.62;29.11
10718;BME280;13513;42.700;23.124;2023-03-26T12:28:17;92370.80;;;20.74;27.53
10718;BME280;13513;42.700;23.124;2023-03-26T12:31:03;92358.59;;;20.62;27.68
10718;BME280;13513;42.700;23.124;2023-03-26T12:33:35;92359.02;;;20.26;27.27
10718;BME280;13513;42.700;23.124;2023-03-26T12:36:19;92360.28;;;20.12;26.44
10718;BME280;13513;42.700;23.124;2023-03-26T12:38:50;92345.70;;;20.15;27.28
10718;BME280;13513;42.700;23.124;2023-03-26T12:41:32;92339.14;;;19.93;26.90
10718;BME280;13513;42.700;23.124;2023-03-26T12:43:53;92347.13;;;19.87;26.60
10718;BME280;13513;42.700;23.124;2023-03-26T12:46:33;92342.93;;;19.92;26.16
10718;BME280;13513;42.700;23.124;2023-03-26T12:49:06;92340.65;;;20.14;25.64
10718;BME280;13513;42.700;23.124;2023-03-26T12:51:43;92345.20;;;20.22;25.58
10718;BME280;13513;42.700;23.124;2023-03-26T12:57:18;92338.01;;;20.28;26.24
10718;BME280;13513;42.700;23.124;2023-03-26T13:08:40;92335.27;;;21.78;24.47
10718;BME280;13513;42.700;23.124;2023-03-26T13:19:46;92319.13;;;24.82;21.90
10718;BME280;13513;42.700;23.124;2023-03-26T13:25:15;92317.13;;;25.32;18.92
10718;BME280;13513;42.700;23.124;2023-03-26T13:30:40;92319.40;;;25.55;18.34
10718;BME280;13513;42.700;23.124;2023-03-26T13:35:50;92309.34;;;25.55;18.19
10718;BME280;13513;42.700;23.124;2023-03-26T13:38:47;92308.63;;;25.83;18.19
10718;BME280;13513;42.700;23.124;2023-03-26T13:41:40;92309.45;;;26.22;19.08
10718;BME280;13513;42.700;23.124;2023-03-26T13:46:50;92297.97;;;26.09;19.29
10718;BME280;13513;42.700;23.124;2023-03-26T13:49:28;92298.30;;;26.55;19.88
10718;BME280;13513;42.700;23.124;2023-03-26T13:51:59;92297.86;;;26.21;20.02
10718;BME280;13513;42.700;23.124;2023-03-26T13:54:35;92299.56;;;26.29;19.90
10718;BME280;13513;42.700;23.124;2023-03-26T13:57:20;92295.59;;;26.55;18.83
10718;BME280;13513;42.700;23.124;2023-03-26T14:02:32;92291.33;;;26.64;20.04
10718;BME280;13513;42.700;23.124;2023-03-26T14:05:16;92219.97;;;26.37;20.13
10718;BME280;13513;42.700;23.124;2023-03-26T14:08:57;92285.89;;;26.74;20.14
10718;BME280;13513;42.700;23.124;2023-03-26T14:10:40;92281.97;;;27.26;19.64
10718;BME280;13513;42.700;23.124;2023-03-26T14:13:21;92268.30;;;27.09;19.13
10718;BME280;13513;42.700;23.124;2023-03-26T14:16:05;92266.30;;;26.93;19.87
10718;BME280;13513;42.700;23.124;2023-03-26T14:21:40;92269.34;;;27.14;19.65
10718;BME280;13513;42.700;23.124;2023-03-26T14:24:49;92256.24;;;27.55;19.66
10718;BME280;13513;42.700;23.124;2023-03-26T14:32:41;92264.56;;;24.92;21.48
10718;BME280;13513;42.700;23.124;2023-03-26T14:44:04;92265.55;;;22.12;24.32
10718;BME280;13513;42.700;23.124;2023-03-26T14:47:01;92258.20;;;21.47;25.14
10718;BME280;13513;42.700;23.124;2023-03-26T14:52:46;92257.69;;;20.46;25.56
10718;BME280;13513;42.700;23.124;2023-03-26T14:55:36;92259.30;;;20.07;27.19
10718;BME280;13513;42.700;23.124;2023-03-26T14:58:09;92253.42;;;19.82;27.00
10718;BME280;13513;42.700;23.124;2023-03-26T15:09:33;92265.31;;;19.10;25.91
10718;BME280;13513;42.700;23.124;2023-03-26T15:23:56;92265.02;;;17.97;30.34
10718;BME280;13513;42.700;23.124;2023-03-26T15:46:52;92265.35;;;17.05;31.46
10718;BME280;13513;42.700;23.124;2023-03-26T15:49:35;92264.17;;;16.98;31.89
10718;BME280;13513;42.700;23.124;2023-03-26T15:52:26;92265.14;;;17.02;30.81
10718;BME280;13513;42.700;23.124;2023-03-26T15:58:03;92267.88;;;16.75;30.98
10718;BME280;13513;42.700;23.124;2023-03-26T16:00:34;92267.95;;;16.59;31.12
10718;BME280;13513;42.700;23.124;2023-03-26T16:03:18;92266.03;;;16.48;31.82
10718;BME280;13513;42.700;23.124;2023-03-26T16:06:11;92270.25;;;16.36;32.21
10718;BME280;13513;42.700;23.124;2023-03-26T16:09:13;92270.25;;;16.22;31.85
10718;BME280;13513;42.700;23.124;2023-03-26T16:11:58;92274.98;;;15.98;32.24
10718;BME280;13513;42.700;23.124;2023-03-26T16:14:45;92281.80;;;15.88;31.94
10718;BME280;13513;42.700;23.124;2023-03-26T16:17:21;92283.45;;;15.70;32.62
10718;BME280;13513;42.700;23.124;2023-03-26T16:19:58;92293.77;;;15.58;33.04
10718;BME280;13513;42.700;23.124;2023-03-26T16:25:33;92281.80;;;15.42;33.44
10718;BME280;13513;42.700;23.124;2023-03-26T16:34:01;92289.73;;;14.92;34.01
10718;BME280;13513;42.700;23.124;2023-03-26T16:36:47;92293.45;;;14.72;33.64
10718;BME280;13513;42.700;23.124;2023-03-26T16:39:21;92298.52;;;14.29;35.04
10718;BME280;13513;42.700;23.124;2023-03-26T16:41:56;92297.59;;;14.13;35.52
10718;BME280;13513;42.700;23.124;2023-03-26T16:44:36;92298.99;;;14.08;34.67
10718;BME280;13513;42.700;23.124;2023-03-26T16:47:32;92297.94;;;14.06;34.51
10718;BME280;13513;42.700;23.124;2023-03-26T16:50:20;92300.90;;;13.76;35.88
10718;BME280;13513;42.700;23.124;2023-03-26T16:58:27;92293.84;;;12.97;36.91
10718;BME280;13513;42.700;23.124;2023-03-26T17:01:15;92291.75;;;12.92;37.77
10718;BME280;13513;42.700;23.124;2023-03-26T17:12:19;92293.63;;;12.40;40.47
10718;BME280;13513;42.700;23.124;2023-03-26T17:17:56;92298.16;;;12.29;41.32
10718;BME280;13513;42.700;23.124;2023-03-26T17:20:31;92302.98;;;12.23;40.95
10718;BME280;13513;42.700;23.124;2023-03-26T17:23:15;92300.15;;;11.96;41.84
10718;BME280;13513;42.700;23.124;2023-03-26T17:26:08;92309.12;;;12.10;41.02
10718;BME280;13513;42.700;23.124;2023-03-26T17:31:35;92310.25;;;11.74;42.70